createdAt,value
2022-08-25T00:00:07.308Z,99.99
2022-08-25T00:01:07.297Z,99.99
2022-08-25T00:02:07.288Z,99.99
2022-08-25T00:03:07.345Z,99.99
2022-08-25T00:04:07.283Z,99.99
2022-08-25T00:05:07.469Z,99.99
2022-08-25T00:06:07.279Z,99.99
2022-08-25T00:07:07.439Z,99.99
2022-08-25T00:08:07.342Z,99.99
2022-08-25T00:09:07.311Z,99.99
2022-08-25T00:10:07.255Z,99.99
2022-08-25T00:11:07.275Z,99.99
2022-08-25T00:12:07.272Z,99.99
2022-08-25T00:13:07.305Z,99.99
2022-08-25T00:14:07.257Z,99.99
2022-08-25T00:15:07.237Z,99.99
2022-08-25T00:16:07.497Z,99.99
2022-08-25T00:17:07.236Z,99.99
2022-08-25T00:18:19.957Z,99.99
2022-08-25T00:19:07.207Z,99.99
2022-08-25T00:20:07.237Z,99.99
2022-08-25T00:21:07.241Z,99.99
2022-08-25T00:22:07.228Z,99.99
2022-08-25T00:23:07.209Z,99.99
2022-08-25T00:24:07.206Z,99.99
2022-08-25T00:25:07.207Z,99.99
2022-08-25T00:26:07.178Z,99.99
2022-08-25T00:27:07.196Z,99.99
2022-08-25T00:28:08.626Z,99.99
2022-08-25T00:29:07.165Z,99.99
2022-08-25T00:30:07.159Z,99.99
2022-08-25T00:31:07.229Z,99.99
2022-08-25T00:32:07.158Z,99.99
2022-08-25T00:33:07.151Z,99.99
2022-08-25T00:34:07.135Z,99.99
2022-08-25T00:35:07.136Z,99.99
2022-08-25T00:36:07.124Z,99.99
2022-08-25T00:37:07.134Z,99.99
2022-08-25T00:38:07.118Z,99.99
2022-08-25T00:39:07.110Z,99.99
2022-08-25T00:40:07.209Z,99.99
2022-08-25T00:41:07.115Z,99.99
2022-08-25T00:42:11.875Z,99.99
2022-08-25T00:43:07.122Z,99.99
2022-08-25T00:44:07.113Z,99.99
2022-08-25T00:45:07.115Z,99.99
2022-08-25T00:46:07.128Z,99.99
2022-08-25T00:47:07.088Z,99.99
2022-08-25T00:48:07.222Z,99.99
2022-08-25T00:49:07.093Z,99.99
2022-08-25T00:50:07.086Z,99.99
2022-08-25T00:51:07.074Z,99.99
2022-08-25T00:52:07.066Z,99.99
2022-08-25T00:53:07.080Z,99.99
2022-08-25T00:54:07.047Z,99.99
2022-08-25T00:55:08.267Z,99.99
2022-08-25T00:56:07.028Z,99.99
2022-08-25T00:57:07.041Z,99.99
2022-08-25T00:58:07.036Z,99.99
2022-08-25T00:59:07.023Z,99.99
2022-08-25T01:00:07.047Z,99.99
2022-08-25T01:01:07.061Z,99.99
2022-08-25T01:02:07.018Z,99.99
2022-08-25T01:03:07.126Z,99.99
2022-08-25T01:04:06.986Z,99.99
2022-08-25T01:05:07.014Z,99.99
2022-08-25T01:06:06.979Z,99.99
2022-08-25T01:07:06.981Z,99.99
2022-08-25T01:08:07.076Z,99.99
2022-08-25T01:09:06.983Z,99.99
2022-08-25T01:10:06.989Z,99.99
2022-08-25T01:11:06.967Z,99.99
2022-08-25T01:12:06.961Z,99.99
2022-08-25T01:13:06.964Z,99.99
2022-08-25T01:14:06.960Z,99.99
2022-08-25T01:15:06.932Z,99.99
2022-08-25T01:16:06.999Z,99.99
2022-08-25T01:17:06.959Z,99.99
2022-08-25T01:18:07.047Z,99.99
2022-08-25T01:19:06.924Z,99.99
2022-08-25T01:20:06.934Z,99.99
2022-08-25T01:21:06.911Z,99.99
2022-08-25T01:22:06.913Z,99.99
2022-08-25T01:23:06.904Z,99.99
2022-08-25T01:24:06.920Z,99.99
2022-08-25T01:25:06.893Z,99.99
2022-08-25T01:26:06.888Z,99.99
2022-08-25T01:27:06.886Z,99.99
2022-08-25T01:28:07.023Z,99.99
2022-08-25T01:29:06.873Z,99.99
2022-08-25T01:30:06.878Z,99.99
2022-08-25T01:31:23.665Z,99.99
2022-08-25T01:32:06.865Z,99.99
2022-08-25T01:33:06.865Z,99.99
2022-08-25T01:34:06.853Z,99.99
2022-08-25T01:35:06.845Z,99.99
2022-08-25T01:36:06.839Z,99.99
2022-08-25T01:37:06.829Z,99.99
2022-08-25T01:38:06.824Z,99.99
2022-08-25T01:39:06.829Z,99.99
2022-08-25T01:40:06.890Z,99.99
2022-08-25T01:41:06.823Z,99.99
2022-08-25T01:42:06.817Z,99.99
2022-08-25T01:43:06.808Z,99.99
2022-08-25T01:44:06.794Z,99.99
2022-08-25T01:45:06.777Z,99.99
2022-08-25T01:46:06.832Z,99.99
2022-08-25T01:47:06.777Z,99.99
2022-08-25T01:48:06.775Z,99.99
2022-08-25T01:49:06.992Z,99.99
2022-08-25T01:50:06.768Z,99.99
2022-08-25T01:51:06.762Z,99.99
2022-08-25T01:52:06.772Z,99.99
2022-08-25T01:53:06.747Z,99.99
2022-08-25T01:54:06.743Z,99.99
2022-08-25T01:55:06.741Z,99.99
2022-08-25T01:56:09.754Z,99.99
2022-08-25T01:57:06.761Z,99.99
2022-08-25T01:58:06.723Z,99.99
2022-08-25T01:59:06.727Z,99.99
2022-08-25T02:00:06.710Z,99.99
2022-08-25T02:01:06.746Z,99.99
2022-08-25T02:02:06.748Z,99.99
2022-08-25T02:03:06.706Z,99.99
2022-08-25T02:04:06.699Z,99.99
2022-08-25T02:05:06.685Z,99.99
2022-08-25T02:06:06.690Z,99.99
2022-08-25T02:07:06.681Z,99.99
2022-08-25T02:08:06.843Z,99.99
2022-08-25T02:09:06.692Z,99.99
2022-08-25T02:10:06.664Z,99.99
2022-08-25T02:11:06.659Z,99.99
2022-08-25T02:12:06.658Z,99.99
2022-08-25T02:13:06.651Z,99.99
2022-08-25T02:14:06.636Z,99.99
2022-08-25T02:15:06.634Z,99.99
2022-08-25T02:16:06.630Z,99.99
2022-08-25T02:17:06.703Z,99.99
2022-08-25T02:18:06.773Z,99.99
2022-08-25T02:19:06.618Z,99.99
2022-08-25T02:20:06.617Z,99.99
2022-08-25T02:21:06.606Z,99.99
2022-08-25T02:22:06.605Z,99.99
2022-08-25T02:23:06.610Z,99.99
2022-08-25T02:24:06.597Z,99.99
2022-08-25T02:25:06.591Z,99.99
2022-08-25T02:26:06.587Z,99.99
2022-08-25T02:27:06.579Z,99.99
2022-08-25T02:28:06.817Z,99.99
2022-08-25T02:29:06.556Z,99.99
2022-08-25T02:30:06.564Z,99.99
2022-08-25T02:31:06.617Z,99.99
2022-08-25T02:32:06.545Z,99.99
2022-08-25T02:33:06.538Z,99.99
2022-08-25T02:34:06.550Z,99.99
2022-08-25T02:35:06.535Z,99.99
2022-08-25T02:36:06.526Z,99.99
2022-08-25T02:37:06.573Z,99.99
2022-08-25T02:38:06.748Z,99.99
2022-08-25T02:39:06.519Z,99.99
2022-08-25T02:40:06.602Z,99.99
2022-08-25T02:41:06.494Z,99.99
2022-08-25T02:42:06.501Z,99.99
2022-08-25T02:43:06.503Z,99.99
2022-08-25T02:44:06.504Z,99.99
2022-08-25T02:45:06.501Z,99.99
2022-08-25T02:46:06.579Z,99.99
2022-08-25T02:47:06.467Z,99.99
2022-08-25T02:48:06.691Z,99.99
2022-08-25T02:49:06.461Z,99.99
2022-08-25T02:50:06.459Z,99.99
2022-08-25T02:51:06.448Z,99.99
2022-08-25T02:52:06.443Z,99.99
2022-08-25T02:53:06.643Z,99.99
2022-08-25T02:54:06.453Z,99.99
2022-08-25T02:55:06.424Z,99.99
2022-08-25T02:56:06.443Z,99.99
2022-08-25T02:57:06.425Z,99.99
2022-08-25T02:58:06.635Z,99.99
2022-08-25T02:59:06.423Z,99.99
2022-08-25T03:00:06.411Z,99.99
2022-08-25T03:01:06.464Z,99.99
2022-08-25T03:02:06.385Z,99.99
2022-08-25T03:03:06.381Z,99.99
2022-08-25T03:04:06.377Z,99.99
2022-08-25T03:05:06.474Z,99.99
2022-08-25T03:06:06.389Z,99.99
2022-08-25T03:07:06.398Z,99.99
2022-08-25T03:08:06.544Z,99.99
2022-08-25T03:09:06.352Z,99.99
2022-08-25T03:10:06.367Z,99.99
2022-08-25T03:11:06.668Z,99.99
2022-08-25T03:12:06.354Z,99.99
2022-08-25T03:13:06.335Z,99.99
2022-08-25T03:14:06.342Z,99.99
2022-08-25T03:15:09.284Z,99.99
2022-08-25T03:16:10.790Z,99.99
2022-08-25T03:17:08.729Z,99.99
2022-08-25T03:18:06.575Z,99.99
2022-08-25T03:19:06.323Z,99.99
2022-08-25T03:20:06.335Z,99.99
2022-08-25T03:21:06.314Z,99.99
2022-08-25T03:22:06.393Z,99.99
2022-08-25T03:23:06.309Z,99.99
2022-08-25T03:24:06.396Z,99.99
2022-08-25T03:25:06.290Z,99.99
2022-08-25T03:26:06.307Z,99.99
2022-08-25T03:27:06.282Z,99.99
2022-08-25T03:28:06.429Z,99.99
2022-08-25T03:29:06.281Z,99.99
2022-08-25T03:30:06.297Z,99.99
2022-08-25T03:31:06.245Z,99.99
2022-08-25T03:32:06.418Z,99.99
2022-08-25T03:33:06.264Z,99.99
2022-08-25T03:34:06.256Z,99.99
2022-08-25T03:35:06.256Z,99.99
2022-08-25T03:36:06.266Z,99.99
2022-08-25T03:37:06.251Z,99.99
2022-08-25T03:38:06.480Z,99.99
2022-08-25T03:39:06.221Z,99.99
2022-08-25T03:40:06.264Z,99.99
2022-08-25T03:41:06.201Z,99.99
2022-08-25T03:42:06.230Z,99.99
2022-08-25T03:43:06.253Z,99.99
2022-08-25T03:44:06.381Z,99.99
2022-08-25T03:45:06.210Z,99.99
2022-08-25T03:46:06.265Z,99.99
2022-08-25T03:47:06.175Z,99.99
2022-08-25T03:48:06.357Z,99.99
2022-08-25T03:49:06.159Z,99.99
2022-08-25T03:50:06.160Z,99.99
2022-08-25T03:51:06.156Z,99.99
2022-08-25T03:52:06.153Z,99.99
2022-08-25T03:53:06.191Z,99.99
2022-08-25T03:54:06.145Z,99.99
2022-08-25T03:55:06.165Z,99.99
2022-08-25T03:56:06.256Z,99.99
2022-08-25T03:57:06.136Z,99.99
2022-08-25T03:58:06.367Z,99.99
2022-08-25T03:59:06.120Z,99.99
2022-08-25T04:00:06.280Z,99.99
2022-08-25T04:01:06.131Z,99.99
2022-08-25T04:02:06.147Z,99.99
2022-08-25T04:03:06.155Z,99.99
2022-08-25T04:04:06.104Z,99.99
2022-08-25T04:05:06.085Z,99.99
2022-08-25T04:06:06.070Z,99.99
2022-08-25T04:07:06.087Z,99.99
2022-08-25T04:08:06.176Z,99.99
2022-08-25T04:09:06.074Z,99.99
2022-08-25T04:10:06.056Z,99.99
2022-08-25T04:11:06.039Z,99.99
2022-08-25T04:12:06.026Z,99.99
2022-08-25T04:13:06.022Z,99.99
2022-08-25T04:14:06.010Z,99.99
2022-08-25T04:15:06.006Z,99.99
2022-08-25T04:16:06.059Z,99.99
2022-08-25T04:17:06.010Z,99.99
2022-08-25T04:18:06.230Z,99.99
2022-08-25T04:19:06.012Z,99.99
2022-08-25T04:20:06.020Z,99.99
2022-08-25T04:21:06.004Z,99.99
2022-08-25T04:22:05.990Z,99.99
2022-08-25T04:23:06.001Z,99.99
2022-08-25T04:24:05.970Z,99.99
2022-08-25T04:25:05.969Z,99.99
2022-08-25T04:26:05.987Z,99.99
2022-08-25T04:27:06.009Z,99.99
2022-08-25T04:28:06.120Z,99.99
2022-08-25T04:29:05.943Z,99.99
2022-08-25T04:30:05.956Z,99.99
2022-08-25T04:31:05.958Z,99.99
2022-08-25T04:32:06.032Z,99.99
2022-08-25T04:33:05.911Z,99.99
2022-08-25T04:34:14.776Z,99.99
2022-08-25T04:35:05.918Z,99.99
2022-08-25T04:36:11.423Z,99.99
2022-08-25T04:37:05.891Z,99.99
2022-08-25T04:38:06.064Z,99.99
2022-08-25T04:39:05.891Z,99.99
2022-08-25T04:40:05.923Z,99.99
2022-08-25T04:41:05.880Z,99.99
2022-08-25T04:42:05.914Z,99.99
2022-08-25T04:43:05.910Z,99.99
2022-08-25T04:44:05.912Z,99.99
2022-08-25T04:45:05.960Z,99.99
2022-08-25T04:46:05.926Z,99.99
2022-08-25T04:47:05.846Z,99.99
2022-08-25T04:48:06.053Z,99.99
2022-08-25T04:49:05.831Z,99.99
2022-08-25T04:50:05.891Z,99.99
2022-08-25T04:51:05.814Z,99.99
2022-08-25T04:52:05.854Z,99.99
2022-08-25T04:53:05.827Z,99.99
2022-08-25T04:54:05.842Z,99.99
2022-08-25T04:55:05.814Z,99.99
2022-08-25T04:56:05.830Z,99.99
2022-08-25T04:57:05.829Z,99.99
2022-08-25T04:58:05.990Z,99.99
2022-08-25T04:59:05.854Z,99.99
2022-08-25T05:00:05.791Z,99.99
2022-08-25T05:01:05.892Z,99.99
2022-08-25T05:02:05.786Z,99.99
2022-08-25T05:03:05.784Z,99.99
2022-08-25T05:04:05.795Z,99.99
2022-08-25T05:05:05.789Z,99.99
2022-08-25T05:06:05.776Z,99.99
2022-08-25T05:07:05.798Z,99.99
2022-08-25T05:08:05.880Z,99.99
2022-08-25T05:09:05.756Z,99.99
2022-08-25T05:10:05.779Z,99.99
2022-08-25T05:11:05.737Z,99.99
2022-08-25T05:12:05.733Z,99.99
2022-08-25T05:13:05.718Z,99.99
2022-08-25T05:14:05.942Z,99.99
2022-08-25T05:15:05.721Z,99.99
2022-08-25T05:16:05.773Z,99.99
2022-08-25T05:17:05.724Z,99.99
2022-08-25T05:18:05.751Z,99.99
2022-08-25T05:19:05.717Z,99.99
2022-08-25T05:20:05.672Z,99.99
2022-08-25T05:21:05.689Z,99.99
2022-08-25T05:22:05.705Z,99.99
2022-08-25T05:23:05.674Z,99.99
2022-08-25T05:24:05.683Z,99.99
2022-08-25T05:25:05.681Z,99.99
2022-08-25T05:26:05.653Z,99.99
2022-08-25T05:27:05.663Z,99.99
2022-08-25T05:28:05.837Z,99.99
2022-08-25T05:29:05.690Z,99.99
2022-08-25T05:30:05.620Z,99.99
2022-08-25T05:31:05.683Z,99.99
2022-08-25T05:32:05.703Z,99.99
2022-08-25T05:33:05.679Z,99.99
2022-08-25T05:34:05.610Z,99.99
2022-08-25T05:35:05.631Z,99.99
2022-08-25T05:36:05.627Z,99.99
2022-08-25T05:37:08.273Z,99.99
2022-08-25T05:38:05.721Z,99.99
2022-08-25T05:39:05.588Z,99.99
2022-08-25T05:40:05.680Z,99.99
2022-08-25T05:41:05.562Z,99.99
2022-08-25T05:42:05.564Z,99.99
2022-08-25T05:43:05.592Z,99.99
2022-08-25T05:44:05.586Z,99.99
2022-08-25T05:45:05.574Z,99.99
2022-08-25T05:46:05.722Z,99.99
2022-08-25T05:47:05.573Z,99.99
2022-08-25T05:48:05.774Z,99.99
2022-08-25T05:49:05.535Z,99.99
2022-08-25T05:50:05.583Z,99.99
2022-08-25T05:51:05.563Z,99.99
2022-08-25T05:52:05.559Z,99.99
2022-08-25T05:53:05.540Z,99.99
2022-08-25T05:57:05.512Z,99.99
2022-08-25T05:58:05.733Z,99.99
2022-08-25T05:59:09.224Z,99.99
2022-08-25T06:00:05.552Z,99.99
2022-08-25T06:01:05.547Z,99.99
2022-08-25T06:02:05.483Z,99.99
2022-08-25T06:03:05.473Z,99.99
2022-08-25T06:04:05.562Z,99.99
2022-08-25T06:05:05.501Z,99.99
2022-08-25T06:06:05.508Z,99.99
2022-08-25T06:07:05.494Z,99.99
2022-08-25T06:08:05.612Z,99.99
2022-08-25T06:09:05.489Z,99.99
2022-08-25T06:10:05.457Z,99.99
2022-08-25T06:11:05.476Z,99.99
2022-08-25T06:12:05.441Z,99.99
2022-08-25T06:13:06.461Z,99.99
2022-08-25T06:14:05.460Z,99.99
2022-08-25T06:15:05.428Z,99.99
2022-08-25T06:16:05.469Z,99.99
2022-08-25T06:17:05.469Z,99.99
2022-08-25T06:18:05.814Z,99.99
2022-08-25T06:19:05.403Z,99.99
2022-08-25T06:20:05.749Z,99.99
2022-08-25T06:21:05.423Z,99.99
2022-08-25T06:22:05.419Z,99.99
2022-08-25T06:23:05.405Z,99.99
2022-08-25T06:24:05.395Z,99.99
2022-08-25T06:25:05.498Z,99.99
2022-08-25T06:26:05.381Z,99.99
2022-08-25T06:27:05.396Z,99.99
2022-08-25T06:28:05.584Z,99.99
2022-08-25T06:29:05.370Z,99.99
2022-08-25T06:30:07.855Z,99.99
2022-08-25T06:31:05.445Z,99.99
2022-08-25T06:32:05.392Z,99.99
2022-08-25T06:33:05.391Z,99.99
2022-08-25T06:34:05.383Z,99.99
2022-08-25T06:35:05.575Z,99.99
2022-08-25T06:36:05.379Z,99.99
2022-08-25T06:37:05.379Z,99.99
2022-08-25T06:38:05.610Z,99.99
2022-08-25T06:39:05.355Z,99.99
2022-08-25T06:40:05.380Z,99.99
2022-08-25T06:41:05.335Z,99.99
2022-08-25T06:42:05.311Z,99.99
2022-08-25T06:43:05.325Z,99.99
2022-08-25T06:44:05.787Z,99.99
2022-08-25T06:45:05.331Z,99.99
2022-08-25T06:46:05.361Z,99.99
2022-08-25T06:47:05.367Z,99.99
2022-08-25T06:48:05.493Z,99.99
2022-08-25T06:49:05.312Z,99.99
2022-08-25T06:50:05.298Z,99.99
2022-08-25T06:51:05.345Z,99.99
2022-08-25T06:52:05.295Z,99.99
2022-08-25T06:53:05.307Z,99.99
2022-08-25T06:54:05.321Z,99.99
2022-08-25T06:55:05.300Z,99.99
2022-08-25T06:56:06.720Z,99.99
2022-08-25T06:57:05.296Z,99.99
2022-08-25T06:58:05.574Z,99.99
2022-08-25T06:59:05.281Z,99.99
2022-08-25T07:00:05.269Z,99.99
2022-08-25T07:01:05.245Z,99.99
2022-08-25T07:02:05.341Z,99.99
2022-08-25T07:03:05.269Z,99.99
2022-08-25T07:04:10.053Z,99.99
2022-08-25T07:05:06.393Z,99.99
2022-08-25T07:06:05.281Z,99.99
2022-08-25T07:07:05.246Z,99.99
2022-08-25T07:08:05.507Z,99.99
2022-08-25T07:09:05.279Z,99.99
2022-08-25T07:10:05.283Z,99.99
2022-08-25T07:11:05.263Z,99.99
2022-08-25T07:12:05.249Z,99.99
2022-08-25T07:13:05.232Z,99.99
2022-08-25T07:14:05.212Z,99.99
2022-08-25T07:15:19.463Z,99.99
2022-08-25T07:16:05.321Z,99.99
2022-08-25T07:17:12.052Z,99.99
2022-08-25T07:18:05.821Z,99.99
2022-08-25T07:19:05.194Z,99.99
2022-08-25T07:20:05.280Z,99.99
2022-08-25T07:21:05.219Z,99.99
2022-08-25T07:22:05.194Z,99.99
2022-08-25T07:23:05.401Z,99.99
2022-08-25T07:24:05.222Z,99.99
2022-08-25T07:25:06.027Z,99.99
2022-08-25T07:26:11.841Z,99.99
2022-08-25T07:27:05.177Z,99.99
2022-08-25T07:28:05.182Z,99.99
2022-08-25T07:29:05.190Z,99.99
2022-08-25T07:30:05.154Z,99.99
2022-08-25T07:31:05.223Z,99.99
2022-08-25T07:32:05.168Z,99.99
2022-08-25T07:33:06.940Z,99.99
2022-08-25T07:34:05.161Z,99.99
2022-08-25T07:35:05.179Z,99.99
2022-08-25T07:36:05.154Z,99.99
2022-08-25T07:37:05.281Z,99.99
2022-08-25T07:38:05.155Z,99.99
2022-08-25T07:39:05.125Z,99.99
2022-08-25T07:40:05.248Z,99.99
2022-08-25T07:41:05.150Z,99.99
2022-08-25T07:42:05.127Z,99.99
2022-08-25T07:43:05.356Z,99.99
2022-08-25T07:44:05.134Z,99.99
2022-08-25T07:45:05.139Z,99.99
2022-08-25T07:46:05.164Z,99.99
2022-08-25T07:47:05.112Z,99.99
2022-08-25T07:48:05.163Z,99.99
2022-08-25T07:49:05.101Z,99.99
2022-08-25T07:50:05.672Z,99.99
2022-08-25T07:51:05.599Z,99.99
2022-08-25T07:52:06.638Z,99.99
2022-08-25T07:53:05.987Z,99.31
2022-08-25T07:54:05.147Z,99.46
2022-08-25T07:55:08.145Z,99.26
2022-08-25T07:57:05.405Z,99.12
2022-08-25T07:58:05.113Z,98.88
2022-08-25T07:59:05.118Z,96.94
2022-08-25T08:00:05.119Z,99.26
2022-08-25T08:01:05.277Z,98.15
2022-08-25T08:02:05.208Z,97.96
2022-08-25T08:03:05.373Z,97.42
2022-08-25T08:04:05.179Z,98.30
2022-08-25T08:05:05.138Z,97.62
2022-08-25T08:06:05.123Z,98.05
2022-08-25T08:07:05.123Z,98.00
2022-08-25T08:08:05.247Z,95.63
2022-08-25T08:09:05.354Z,93.74
2022-08-25T08:10:29.724Z,93.35
2022-08-25T08:11:05.678Z,93.59
2022-08-25T08:12:05.086Z,93.79
2022-08-25T08:13:07.343Z,94.42
2022-08-25T08:14:05.124Z,92.04
2022-08-25T08:15:05.096Z,93.01
2022-08-25T08:16:05.183Z,94.32
2022-08-25T08:17:05.165Z,93.30
2022-08-25T08:18:05.104Z,93.40
2022-08-25T08:19:05.111Z,93.63
2022-08-25T08:20:05.126Z,93.39
2022-08-25T08:21:05.350Z,90.77
2022-08-25T08:22:05.519Z,89.61
2022-08-25T08:23:05.357Z,90.00
2022-08-25T08:24:14.907Z,90.30
2022-08-25T08:25:05.101Z,94.23
2022-08-25T08:26:05.114Z,94.46
2022-08-25T08:27:05.135Z,94.42
2022-08-25T08:28:07.473Z,94.02
2022-08-25T08:29:05.169Z,91.60
2022-08-25T08:30:05.152Z,91.99
2022-08-25T08:31:05.185Z,92.86
2022-08-25T08:32:05.331Z,92.18
2022-08-25T08:33:12.954Z,91.99
2022-08-25T08:34:05.127Z,90.58
2022-08-25T08:35:05.177Z,88.48
2022-08-25T08:36:05.498Z,89.65
2022-08-25T08:37:05.111Z,88.14
2022-08-25T08:38:08.949Z,87.85
2022-08-25T08:39:05.150Z,86.33
2022-08-25T08:40:05.235Z,84.72
2022-08-25T08:41:05.145Z,84.43
2022-08-25T08:42:11.156Z,83.56
2022-08-25T08:43:05.352Z,85.56
2022-08-25T08:45:05.166Z,85.21
2022-08-25T08:46:05.234Z,84.10
2022-08-25T08:47:05.138Z,84.58
2022-08-25T08:48:06.615Z,85.42
2022-08-25T08:49:05.146Z,86.39
2022-08-25T08:50:05.142Z,87.32
2022-08-25T08:51:10.058Z,87.41
2022-08-25T08:52:05.153Z,86.64
2022-08-25T08:53:05.171Z,87.71
2022-08-25T08:54:05.652Z,86.39
2022-08-25T08:55:05.484Z,86.49
2022-08-25T08:56:05.151Z,86.49
2022-08-25T08:57:05.205Z,85.17
2022-08-25T08:58:05.259Z,85.94
2022-08-25T08:59:06.235Z,85.94
2022-08-25T09:00:05.164Z,85.85
2022-08-25T09:01:05.163Z,85.17
2022-08-25T09:02:05.261Z,85.71
2022-08-25T09:03:05.343Z,86.19
2022-08-25T09:04:05.161Z,85.28
2022-08-25T09:05:05.163Z,86.93
2022-08-25T09:06:06.794Z,87.90
2022-08-25T09:07:05.143Z,87.61
2022-08-25T09:08:05.326Z,87.22
2022-08-25T09:09:06.961Z,88.00
2022-08-25T09:10:05.374Z,86.89
2022-08-25T09:11:05.200Z,87.51
2022-08-25T09:12:05.173Z,87.61
2022-08-25T09:13:11.280Z,86.78
2022-08-25T09:14:05.381Z,85.67
2022-08-25T09:15:12.730Z,86.00
2022-08-25T09:16:05.291Z,85.47
2022-08-25T09:17:05.165Z,87.41
2022-08-25T09:18:05.160Z,86.49
2022-08-25T09:19:05.144Z,85.90
2022-08-25T09:20:05.148Z,86.29
2022-08-25T09:21:05.204Z,83.86
2022-08-25T09:22:35.256Z,85.13
2022-08-25T09:23:05.162Z,84.25
2022-08-25T09:24:05.188Z,84.20
2022-08-25T09:25:08.539Z,82.93
2022-08-25T09:26:05.207Z,83.71
2022-08-25T09:27:05.159Z,83.03
2022-08-25T09:28:05.341Z,82.49
2022-08-25T09:29:06.140Z,81.71
2022-08-25T09:30:05.565Z,81.32
2022-08-25T09:31:05.202Z,80.77
2022-08-25T09:32:05.212Z,79.45
2022-08-25T09:33:05.514Z,79.74
2022-08-25T09:34:05.192Z,79.55
2022-08-25T09:35:05.149Z,79.41
2022-08-25T09:36:06.114Z,80.43
2022-08-25T09:37:05.170Z,79.25
2022-08-25T09:38:05.464Z,78.69
2022-08-25T09:39:05.176Z,80.30
2022-08-25T09:40:05.278Z,81.57
2022-08-25T09:41:05.179Z,81.57
2022-08-25T09:42:05.179Z,82.11
2022-08-25T09:43:05.147Z,82.79
2022-08-25T09:44:05.164Z,83.04
2022-08-25T09:45:05.165Z,83.20
2022-08-25T09:46:05.288Z,84.81
2022-08-25T09:47:05.181Z,85.58
2022-08-25T09:48:05.322Z,85.88
2022-08-25T09:49:05.201Z,85.97
2022-08-25T09:50:05.519Z,87.04
2022-08-25T09:51:05.653Z,86.94
2022-08-25T09:52:05.173Z,86.65
2022-08-25T09:53:15.233Z,85.58
2022-08-25T09:54:10.794Z,86.21
2022-08-25T09:55:05.150Z,85.33
2022-08-25T09:56:05.164Z,84.36
2022-08-25T09:57:05.165Z,84.17
2022-08-25T09:58:09.509Z,85.33
2022-08-25T09:59:05.357Z,83.97
2022-08-25T10:00:05.164Z,83.78
2022-08-25T10:01:05.344Z,84.52
2022-08-25T10:02:05.230Z,84.17
2022-08-25T10:03:05.625Z,85.92
2022-08-25T10:04:05.167Z,84.31
2022-08-25T10:05:05.204Z,83.86
2022-08-25T10:06:05.146Z,83.03
2022-08-25T10:07:05.186Z,81.38
2022-08-25T10:08:05.165Z,81.81
2022-08-25T10:09:05.990Z,80.79
2022-08-25T10:10:05.193Z,81.51
2022-08-25T10:11:06.558Z,79.12
2022-08-25T10:12:05.161Z,80.48
2022-08-25T10:13:06.695Z,79.18
2022-08-25T10:14:05.178Z,78.50
2022-08-25T10:15:05.133Z,77.68
2022-08-25T10:16:05.193Z,77.68
2022-08-25T10:17:05.136Z,80.64
2022-08-25T10:18:05.148Z,79.08
2022-08-25T10:19:05.155Z,78.66
2022-08-25T10:20:05.149Z,80.60
2022-08-25T10:21:07.846Z,80.36
2022-08-25T10:22:05.164Z,80.71
2022-08-25T10:23:05.437Z,80.62
2022-08-25T10:24:05.141Z,81.59
2022-08-25T10:25:05.122Z,80.04
2022-08-25T10:26:05.122Z,81.30
2022-08-25T10:27:05.319Z,80.23
2022-08-25T10:28:05.338Z,79.84
2022-08-25T10:29:05.178Z,80.23
2022-08-25T10:30:05.365Z,80.91
2022-08-25T10:31:05.201Z,81.10
2022-08-25T10:32:07.070Z,81.65
2022-08-25T10:33:05.320Z,82.13
2022-08-25T10:34:05.106Z,81.78
2022-08-25T10:35:05.132Z,82.02
2022-08-25T10:36:05.134Z,79.72
2022-08-25T10:37:05.118Z,79.63
2022-08-25T10:38:05.104Z,79.68
2022-08-25T10:39:05.113Z,80.56
2022-08-25T10:40:05.213Z,81.04
2022-08-25T10:41:05.151Z,79.97
2022-08-25T10:42:05.264Z,81.34
2022-08-25T10:43:05.365Z,80.07
2022-08-25T10:44:05.126Z,81.43
2022-08-25T10:45:05.121Z,81.09
2022-08-25T10:46:05.142Z,80.30
2022-08-25T10:47:05.152Z,79.33
2022-08-25T10:48:05.112Z,79.57
2022-08-25T10:49:05.107Z,79.76
2022-08-25T10:50:05.125Z,78.59
2022-08-25T10:51:05.125Z,78.40
2022-08-25T10:52:05.102Z,78.01
2022-08-25T10:53:05.369Z,77.72
2022-08-25T10:54:05.154Z,77.04
2022-08-25T10:55:05.145Z,78.44
2022-08-25T10:56:07.090Z,75.91
2022-08-25T10:57:07.150Z,75.62
2022-08-25T10:58:05.106Z,77.47
2022-08-25T10:59:05.113Z,78.44
2022-08-25T11:00:05.183Z,77.27
2022-08-25T11:01:05.253Z,77.82
2022-08-25T11:02:05.178Z,78.40
2022-08-25T11:03:05.271Z,79.24
2022-08-25T11:04:05.211Z,79.30
2022-08-25T11:05:05.142Z,80.13
2022-08-25T11:06:05.214Z,80.56
2022-08-25T11:07:05.144Z,80.07
2022-08-25T11:08:05.142Z,79.30
2022-08-25T11:09:05.386Z,81.01
2022-08-25T11:10:05.093Z,81.10
2022-08-25T11:11:05.527Z,81.01
2022-08-25T11:12:05.154Z,80.23
2022-08-25T11:13:06.188Z,80.13
2022-08-25T11:14:11.109Z,80.62
2022-08-25T11:15:05.371Z,79.59
2022-08-25T11:16:19.749Z,79.88
2022-08-25T11:17:05.395Z,79.20
2022-08-25T11:18:05.784Z,79.30
2022-08-25T11:19:05.718Z,82.11
2022-08-25T11:20:05.332Z,79.24
2022-08-25T11:21:05.410Z,79.14
2022-08-25T11:22:05.369Z,79.30
2022-08-25T11:23:05.343Z,80.27
2022-08-25T11:24:05.305Z,80.17
2022-08-25T11:25:05.345Z,80.07
2022-08-25T11:26:05.412Z,79.88
2022-08-25T11:27:05.118Z,78.61
2022-08-25T11:28:05.510Z,79.59
2022-08-25T11:29:05.270Z,80.56
2022-08-25T11:30:06.066Z,81.14
2022-08-25T11:31:05.698Z,79.49
2022-08-25T11:32:05.105Z,80.46
2022-08-25T11:33:05.115Z,79.59
2022-08-25T11:34:05.075Z,80.66
2022-08-25T11:35:05.101Z,78.71
2022-08-25T11:36:05.067Z,78.52
2022-08-25T11:37:05.149Z,79.49
2022-08-25T11:38:05.266Z,79.14
2022-08-25T11:39:05.267Z,79.92
2022-08-25T11:40:05.142Z,77.78
2022-08-25T11:41:11.149Z,77.48
2022-08-25T11:42:05.064Z,76.61
2022-08-25T11:43:05.079Z,77.87
2022-08-25T11:44:05.536Z,77.00
2022-08-25T11:45:05.082Z,76.51
2022-08-25T11:46:05.190Z,77.20
2022-08-25T11:47:05.610Z,78.36
2022-08-25T11:48:05.291Z,78.36
2022-08-25T11:49:05.088Z,78.27
2022-08-25T11:50:05.038Z,77.20
2022-08-25T11:51:05.073Z,75.74
2022-08-25T11:52:05.064Z,77.29
2022-08-25T11:53:05.071Z,78.01
2022-08-25T11:54:05.045Z,78.30
2022-08-25T11:55:05.061Z,77.23
2022-08-25T11:56:05.462Z,75.87
2022-08-25T11:57:05.076Z,76.65
2022-08-25T11:58:05.307Z,76.07
2022-08-25T11:59:05.065Z,75.48
2022-08-25T12:00:05.536Z,75.71
2022-08-25T12:01:05.293Z,74.35
2022-08-25T12:02:05.059Z,74.26
2022-08-25T12:03:05.557Z,74.84
2022-08-25T12:04:05.617Z,74.29
2022-08-25T12:05:05.618Z,73.12
2022-08-25T12:06:05.179Z,72.86
2022-08-25T12:07:05.523Z,72.09
2022-08-25T12:08:05.191Z,70.78
2022-08-25T12:09:05.502Z,70.68
2022-08-25T12:10:05.315Z,71.80
2022-08-25T12:11:10.447Z,72.77
2022-08-25T12:12:05.067Z,70.62
2022-08-25T12:13:05.046Z,71.25
2022-08-25T12:14:05.042Z,70.17
2022-08-25T12:15:05.039Z,70.37
2022-08-25T12:16:05.385Z,70.56
2022-08-25T12:17:05.125Z,70.11
2022-08-25T12:18:08.558Z,69.20
2022-08-25T12:19:05.035Z,69.68
2022-08-25T12:20:05.035Z,68.42
2022-08-25T12:21:05.047Z,67.44
2022-08-25T12:22:05.035Z,68.42
2022-08-25T12:23:05.237Z,69.17
2022-08-25T12:24:05.061Z,70.14
2022-08-25T12:25:05.128Z,69.07
2022-08-25T12:26:05.081Z,68.97
2022-08-25T12:27:06.624Z,69.94
2022-08-25T12:28:09.046Z,70.53
2022-08-25T12:29:07.395Z,70.62
2022-08-25T12:30:05.309Z,69.65
2022-08-25T12:31:05.130Z,69.94
2022-08-25T12:32:05.229Z,70.62
2022-08-25T12:33:05.434Z,69.65
2022-08-25T12:34:05.042Z,70.04
2022-08-25T12:35:05.044Z,70.40
2022-08-25T12:36:05.064Z,69.36
2022-08-25T12:37:06.109Z,70.53
2022-08-25T12:38:05.373Z,69.36
2022-08-25T12:39:05.026Z,68.77
2022-08-25T12:40:05.051Z,69.07
2022-08-25T12:41:05.149Z,68.58
2022-08-25T12:42:05.037Z,68.23
2022-08-25T12:43:05.194Z,67.54
2022-08-25T12:44:05.071Z,67.83
2022-08-25T12:45:05.416Z,68.42
2022-08-25T12:46:05.351Z,67.44
2022-08-25T12:47:05.195Z,67.90
2022-08-25T12:48:05.058Z,67.90
2022-08-25T12:49:05.035Z,68.09
2022-08-25T12:50:05.139Z,69.94
2022-08-25T12:51:05.040Z,70.14
2022-08-25T12:52:05.047Z,69.13
2022-08-25T12:53:05.189Z,70.59
2022-08-25T12:54:09.882Z,69.56
2022-08-25T12:55:05.041Z,70.01
2022-08-25T12:56:05.021Z,71.66
2022-08-25T12:57:05.163Z,70.78